AUA3012 KJFK-LOWW
Flight info
| Callsign | AUA3012 |
|---|---|
| Flight time | N/A |
| Altitude | 37000 |
| Route | DIXIE Y481 POPPN DCT LACKS DCT JOBOC/M083F370 DCT 4160N DCT 4250N DCT 4340N DCT 4330N/M083F390 DCT 4320N DCT MUDOS/N0469F390 DCT ROXER DCT NOLSA/N0476F410 DCT MARIO DCT SINDO DCT PIVUS/N0475F400 DCT DIBER DCT NETUP DCT STP DCT RAPED DCT PIGOS DCT EKSID DCT NOSTA DCT LUKIM DCT MALUG/N0478F410 DCT ARALD DCT ABTAN ABTAN2W |
| Aircraft | B772/H-SDE2E3FGHIJ5LORVWXY/LB1D1 |
Departure
| Time | N/A |
|---|---|
| Airport | John F. Kennedy International Airport (KJFK) |
Arrival
| Time | 2026-04-25 21:48 |
|---|---|
| Airport | Vienna International Airport (LOWW) |
| Time | Latitude | Longitude | Altitude | Speed | Heading |
|---|---|---|---|---|---|
| 2026-04-25 18:38 | 43.49291 | -13.21288 | 37706 ft | 483 kts | 100° |
| 2026-04-25 18:38 | 43.49092 | -13.16642 | 37758 ft | 488 kts | 89° |
| 2026-04-25 18:38 | 43.49324 | -13.11958 | 37856 ft | 493 kts | 85° |
| 2026-04-25 18:39 | 43.49919 | -13.02481 | 37925 ft | 500 kts | 87° |
| 2026-04-25 18:39 | 43.49898 | -12.93032 | 38031 ft | 503 kts | 94° |
| 2026-04-25 18:40 | 43.49592 | -12.83395 | 38338 ft | 503 kts | 94° |
| 2026-04-25 18:40 | 43.49437 | -12.78593 | 38580 ft | 501 kts | 94° |
| 2026-04-25 18:40 | 43.49289 | -12.73821 | 38817 ft | 499 kts | 94° |
| 2026-04-25 18:41 | 43.49146 | -12.69049 | 39027 ft | 498 kts | 93° |
| 2026-04-25 18:41 | 43.49005 | -12.64283 | 39076 ft | 500 kts | 93° |
| 2026-04-25 18:41 | 43.48724 | -12.54786 | 39126 ft | 504 kts | 93° |
| 2026-04-25 18:42 | 43.48479 | -12.46636 | 39136 ft | 507 kts | 94° |
| 2026-04-25 18:42 | 43.48122 | -12.35249 | 39128 ft | 511 kts | 94° |
| 2026-04-25 18:43 | 43.47974 | -12.30585 | 39140 ft | 514 kts | 94° |
| 2026-04-25 18:43 | 43.47729 | -12.23077 | 39163 ft | 514 kts | 94° |
| 2026-04-25 18:44 | 43.47405 | -12.13292 | 39120 ft | 505 kts | 94° |
| 2026-04-25 18:44 | 43.47079 | -12.03695 | 39126 ft | 501 kts | 94° |
| 2026-04-25 18:45 | 43.46749 | -11.94291 | 39132 ft | 499 kts | 94° |
| 2026-04-25 18:45 | 43.46408 | -11.84755 | 39128 ft | 499 kts | 94° |
| 2026-04-25 18:46 | 43.46059 | -11.75219 | 39134 ft | 498 kts | 94° |
| 2026-04-25 18:46 | 43.45703 | -11.65703 | 39130 ft | 498 kts | 94° |
| 2026-04-25 18:47 | 43.45337 | -11.56181 | 39129 ft | 498 kts | 94° |
| 2026-04-25 18:47 | 43.44965 | -11.46666 | 39130 ft | 499 kts | 94° |
| 2026-04-25 18:48 | 43.44586 | -11.37129 | 39148 ft | 499 kts | 94° |
| 2026-04-25 18:48 | 43.44195 | -11.27599 | 39147 ft | 499 kts | 94° |
| 2026-04-25 18:49 | 43.43798 | -11.18046 | 39142 ft | 500 kts | 94° |
| 2026-04-25 18:49 | 43.43395 | -11.08503 | 39142 ft | 500 kts | 94° |
| 2026-04-25 18:50 | 43.42989 | -10.99138 | 39136 ft | 499 kts | 94° |
| 2026-04-25 18:50 | 43.42568 | -10.89601 | 39138 ft | 499 kts | 94° |
| 2026-04-25 18:51 | 43.42212 | -10.81678 | 39141 ft | 499 kts | 94° |
| 2026-04-25 18:51 | 43.41705 | -10.70554 | 39135 ft | 498 kts | 94° |
| 2026-04-25 18:52 | 43.41260 | -10.61038 | 39135 ft | 498 kts | 94° |
| 2026-04-25 18:52 | 43.40811 | -10.51536 | 39135 ft | 498 kts | 94° |
| 2026-04-25 18:53 | 43.40352 | -10.42040 | 39139 ft | 498 kts | 94° |
| 2026-04-25 18:53 | 43.39884 | -10.32542 | 39138 ft | 497 kts | 94° |
| 2026-04-25 18:54 | 43.39171 | -10.18305 | 39139 ft | 497 kts | 95° |
| 2026-04-25 18:55 | 43.38686 | -10.08823 | 39140 ft | 498 kts | 95° |
| 2026-04-25 18:55 | 43.38199 | -9.99484 | 39141 ft | 498 kts | 95° |
| 2026-04-25 18:56 | 43.37697 | -9.89996 | 39146 ft | 498 kts | 95° |
| 2026-04-25 18:56 | 43.37186 | -9.80503 | 39139 ft | 498 kts | 95° |
| 2026-04-25 18:57 | 43.36669 | -9.71025 | 39134 ft | 497 kts | 95° |
| 2026-04-25 18:57 | 43.36144 | -9.61547 | 39140 ft | 497 kts | 95° |
| 2026-04-25 18:58 | 43.35656 | -9.52832 | 39135 ft | 496 kts | 95° |
| 2026-04-25 18:58 | 43.35194 | -9.44738 | 39140 ft | 495 kts | 95° |
| 2026-04-25 18:59 | 43.34103 | -9.25932 | 39130 ft | 496 kts | 95° |
| 2026-04-25 19:00 | 43.33261 | -9.11785 | 39129 ft | 495 kts | 95° |
| 2026-04-25 19:01 | 43.32408 | -8.97787 | 39132 ft | 495 kts | 95° |
| 2026-04-25 19:01 | 43.31826 | -8.88380 | 39130 ft | 495 kts | 95° |
| 2026-04-25 19:02 | 43.30938 | -8.74255 | 39129 ft | 495 kts | 95° |
| 2026-04-25 19:03 | 43.30234 | -8.63245 | 39131 ft | 495 kts | 95° |
| 2026-04-25 19:03 | 43.29422 | -8.50742 | 39129 ft | 494 kts | 95° |
| 2026-04-25 19:04 | 43.28489 | -8.36656 | 39126 ft | 494 kts | 95° |
| 2026-04-25 19:05 | 43.27220 | -8.17905 | 39130 ft | 493 kts | 95° |
| 2026-04-25 19:06 | 43.26576 | -8.08549 | 39130 ft | 493 kts | 95° |
| 2026-04-25 19:06 | 43.25606 | -7.94670 | 39127 ft | 493 kts | 95° |
| 2026-04-25 19:07 | 43.24608 | -7.80657 | 39131 ft | 492 kts | 95° |
| 2026-04-25 19:08 | 43.23594 | -7.66644 | 39138 ft | 492 kts | 95° |
| 2026-04-25 19:09 | 43.22387 | -7.51150 | 39143 ft | 492 kts | 96° |
| 2026-04-25 19:10 | 43.20930 | -7.34046 | 39146 ft | 491 kts | 96° |
| 2026-04-25 19:10 | 43.20137 | -7.24745 | 39142 ft | 492 kts | 96° |
| 2026-04-25 19:11 | 43.19338 | -7.15427 | 39153 ft | 492 kts | 96° |
| 2026-04-25 19:11 | 43.18539 | -7.06169 | 39144 ft | 493 kts | 96° |
| 2026-04-25 19:12 | 43.17870 | -6.98506 | 39145 ft | 493 kts | 96° |
| 2026-04-25 19:12 | 43.16917 | -6.87675 | 39156 ft | 493 kts | 96° |
| 2026-04-25 19:13 | 43.16192 | -6.79539 | 39158 ft | 493 kts | 96° |
| 2026-04-25 19:13 | 43.15985 | -6.77218 | 39160 ft | 493 kts | 96° |
| 2026-04-25 19:14 | 43.15148 | -6.67899 | 39155 ft | 493 kts | 96° |
| 2026-04-25 19:14 | 43.14304 | -6.58593 | 39157 ft | 493 kts | 96° |
| 2026-04-25 19:15 | 43.13450 | -6.49279 | 39164 ft | 493 kts | 97° |
| 2026-04-25 19:15 | 43.12591 | -6.39980 | 39168 ft | 492 kts | 97° |
| 2026-04-25 19:16 | 43.11729 | -6.30743 | 39168 ft | 492 kts | 97° |
| 2026-04-25 19:16 | 43.10851 | -6.21405 | 39165 ft | 492 kts | 97° |
| 2026-04-25 19:17 | 43.09970 | -6.12128 | 39167 ft | 491 kts | 97° |
| 2026-04-25 19:17 | 43.09088 | -6.02923 | 39165 ft | 491 kts | 97° |
| 2026-04-25 19:18 | 43.08206 | -5.93793 | 39169 ft | 492 kts | 97° |
| 2026-04-25 19:18 | 43.07302 | -5.84520 | 39164 ft | 492 kts | 97° |
| 2026-04-25 19:19 | 43.06392 | -5.75250 | 39163 ft | 492 kts | 97° |
| 2026-04-25 19:19 | 43.05473 | -5.65981 | 39163 ft | 492 kts | 97° |
| 2026-04-25 19:20 | 43.04547 | -5.56701 | 39160 ft | 492 kts | 97° |
| 2026-04-25 19:20 | 43.03614 | -5.47429 | 39157 ft | 493 kts | 97° |
| 2026-04-25 19:21 | 43.02671 | -5.38151 | 39167 ft | 493 kts | 98° |
| 2026-04-25 19:21 | 43.01242 | -5.24244 | 39181 ft | 493 kts | 98° |
| 2026-04-25 19:22 | 43.00280 | -5.14963 | 39175 ft | 493 kts | 98° |
| 2026-04-25 19:23 | 42.98416 | -5.01148 | 39169 ft | 493 kts | 103° |
| 2026-04-25 19:23 | 42.96107 | -4.87774 | 39201 ft | 489 kts | 103° |
| 2026-04-25 19:24 | 42.94564 | -4.78681 | 39202 ft | 495 kts | 103° |
| 2026-04-25 19:25 | 42.91487 | -4.60232 | 39200 ft | 501 kts | 103° |
| 2026-04-25 19:25 | 42.89934 | -4.50975 | 39198 ft | 501 kts | 103° |
| 2026-04-25 19:26 | 42.88372 | -4.41731 | 39196 ft | 500 kts | 103° |
| 2026-04-25 19:26 | 42.86806 | -4.32521 | 39189 ft | 498 kts | 103° |
| 2026-04-25 19:27 | 42.85502 | -4.24897 | 39185 ft | 496 kts | 103° |
| 2026-04-25 19:27 | 42.83666 | -4.14208 | 39185 ft | 495 kts | 103° |
| 2026-04-25 19:28 | 42.82913 | -4.09834 | 39197 ft | 478 kts | 103° |
| 2026-04-25 19:28 | 42.82427 | -4.07016 | 39162 ft | 494 kts | 103° |
| 2026-04-25 19:28 | 42.81637 | -4.02459 | 39195 ft | 493 kts | 104° |
| 2026-04-25 19:29 | 42.81592 | -4.02195 | 39193 ft | 496 kts | 103° |
| 2026-04-25 19:30 | 42.77113 | -3.76472 | 39203 ft | 493 kts | 103° |
| 2026-04-25 19:30 | 42.75763 | -3.67316 | 39194 ft | 494 kts | 101° |
| 2026-04-25 19:31 | 42.74505 | -3.58122 | 39196 ft | 495 kts | 101° |
| 2026-04-25 19:31 | 42.73210 | -3.48925 | 39183 ft | 495 kts | 101° |
| 2026-04-25 19:32 | 42.71876 | -3.39736 | 39186 ft | 496 kts | 102° |
| 2026-04-25 19:32 | 42.70752 | -3.32095 | 39178 ft | 496 kts | 102° |
| 2026-04-25 19:33 | 42.69166 | -3.21361 | 39183 ft | 495 kts | 102° |
| 2026-04-25 19:33 | 42.67802 | -3.12182 | 39173 ft | 495 kts | 102° |
| 2026-04-25 19:34 | 42.66435 | -3.03034 | 39175 ft | 494 kts | 102° |
| 2026-04-25 19:34 | 42.65095 | -2.94105 | 39178 ft | 494 kts | 102° |
| 2026-04-25 19:35 | 42.63716 | -2.84976 | 39173 ft | 494 kts | 102° |
| 2026-04-25 19:35 | 42.62338 | -2.75902 | 39178 ft | 493 kts | 102° |
| 2026-04-25 19:36 | 42.60947 | -2.66798 | 39168 ft | 493 kts | 102° |
| 2026-04-25 19:36 | 42.59538 | -2.57628 | 39168 ft | 492 kts | 102° |
| 2026-04-25 19:37 | 42.58136 | -2.48550 | 39156 ft | 492 kts | 102° |
| 2026-04-25 19:37 | 42.56729 | -2.39488 | 39141 ft | 491 kts | 103° |
| 2026-04-25 19:38 | 42.55311 | -2.30416 | 39138 ft | 490 kts | 103° |
| 2026-04-25 19:38 | 42.53892 | -2.21386 | 39126 ft | 489 kts | 103° |
| 2026-04-25 19:39 | 42.52467 | -2.12373 | 39131 ft | 488 kts | 103° |
| 2026-04-25 19:39 | 42.51040 | -2.03376 | 39137 ft | 487 kts | 103° |
| 2026-04-25 19:40 | 42.49628 | -1.94536 | 39143 ft | 487 kts | 103° |
| 2026-04-25 19:40 | 42.48198 | -1.85626 | 39143 ft | 487 kts | 103° |
| 2026-04-25 19:41 | 42.46752 | -1.76656 | 39140 ft | 488 kts | 103° |
| 2026-04-25 19:41 | 42.45778 | -1.70648 | 39136 ft | 488 kts | 103° |
| 2026-04-25 19:42 | 42.43831 | -1.58702 | 39126 ft | 488 kts | 103° |
| 2026-04-25 19:42 | 42.42360 | -1.49731 | 39126 ft | 489 kts | 103° |
| 2026-04-25 19:43 | 42.41731 | -1.45904 | 39123 ft | 436 kts | 103° |
| 2026-04-25 19:43 | 42.41252 | -1.43001 | 39102 ft | 489 kts | 103° |
| 2026-04-25 19:43 | 42.40511 | -1.38513 | 39106 ft | 489 kts | 103° |
| 2026-04-25 19:44 | 42.39024 | -1.29536 | 39111 ft | 489 kts | 103° |
| 2026-04-25 19:44 | 42.37531 | -1.20566 | 39113 ft | 489 kts | 103° |
| 2026-04-25 19:45 | 42.36027 | -1.11597 | 39122 ft | 489 kts | 103° |
| 2026-04-25 19:45 | 42.34520 | -1.02643 | 39121 ft | 489 kts | 104° |
| 2026-04-25 19:46 | 42.33024 | -0.93814 | 39117 ft | 489 kts | 104° |
| 2026-04-25 19:46 | 42.31500 | -0.84856 | 39140 ft | 489 kts | 104° |
| 2026-04-25 19:47 | 42.29969 | -0.75895 | 39126 ft | 490 kts | 104° |
| 2026-04-25 19:47 | 42.28430 | -0.66936 | 39140 ft | 490 kts | 104° |
| 2026-04-25 19:48 | 42.26880 | -0.57963 | 39124 ft | 491 kts | 104° |
| 2026-04-25 19:48 | 42.25323 | -0.48993 | 39142 ft | 491 kts | 104° |
| 2026-04-25 19:49 | 42.24289 | -0.43057 | 39130 ft | 491 kts | 104° |
| 2026-04-25 19:49 | 42.22190 | -0.31062 | 39130 ft | 491 kts | 104° |
| 2026-04-25 19:50 | 42.20620 | -0.17434 | 39127 ft | 492 kts | 94° |
| 2026-04-25 19:51 | 42.20290 | -0.08219 | 39132 ft | 492 kts | 93° |
| 2026-04-25 19:51 | 42.19956 | 0.00835 | 39127 ft | 492 kts | 94° |
| 2026-04-25 19:52 | 42.19574 | 0.10058 | 39130 ft | 494 kts | 94° |
| 2026-04-25 19:52 | 42.19164 | 0.19352 | 39139 ft | 499 kts | 94° |
| 2026-04-25 19:53 | 42.18742 | 0.28721 | 39144 ft | 502 kts | 94° |
| 2026-04-25 19:53 | 42.18316 | 0.38100 | 39114 ft | 499 kts | 94° |
| 2026-04-25 19:54 | 42.17887 | 0.47409 | 39137 ft | 496 kts | 94° |
| 2026-04-25 19:54 | 42.17451 | 0.56627 | 39124 ft | 496 kts | 94° |
| 2026-04-25 19:55 | 42.17005 | 0.65902 | 39128 ft | 496 kts | 94° |
| 2026-04-25 19:55 | 42.16554 | 0.75181 | 39129 ft | 497 kts | 94° |
| 2026-04-25 19:56 | 42.16095 | 0.84471 | 39129 ft | 495 kts | 94° |
| 2026-04-25 19:56 | 42.15635 | 0.93597 | 39131 ft | 484 kts | 95° |
| 2026-04-25 19:57 | 42.15256 | 1.01012 | 39141 ft | 483 kts | 95° |
| 2026-04-25 19:57 | 42.13894 | 1.09801 | 39146 ft | 479 kts | 112° |
| 2026-04-25 19:58 | 42.10586 | 1.17523 | 39164 ft | 478 kts | 131° |
| 2026-04-25 19:58 | 42.09398 | 1.19331 | 39203 ft | 478 kts | 136° |
| 2026-04-25 19:59 | 42.04506 | 1.25424 | 39431 ft | 480 kts | 141° |
| 2026-04-25 19:59 | 42.01975 | 1.28345 | 39567 ft | 481 kts | 141° |
| 2026-04-25 19:59 | 41.99417 | 1.31264 | 39674 ft | 483 kts | 141° |
| 2026-04-25 19:59 | 41.96850 | 1.34181 | 39811 ft | 484 kts | 141° |
| 2026-04-25 20:00 | 41.94288 | 1.37075 | 40021 ft | 482 kts | 141° |
| 2026-04-25 20:00 | 41.89153 | 1.42849 | 40114 ft | 478 kts | 140° |
| 2026-04-25 20:00 | 41.86975 | 1.46184 | 40132 ft | 480 kts | 121° |
| 2026-04-25 20:01 | 41.85578 | 1.54843 | 40149 ft | 486 kts | 84° |
| 2026-04-25 20:01 | 41.86800 | 1.63816 | 40145 ft | 491 kts | 78° |
| 2026-04-25 20:02 | 41.87853 | 1.72899 | 40137 ft | 494 kts | 84° |
| 2026-04-25 20:02 | 41.88331 | 1.82085 | 40129 ft | 491 kts | 88° |
| 2026-04-25 20:03 | 41.88557 | 1.91177 | 40123 ft | 485 kts | 88° |
| 2026-04-25 20:03 | 41.88755 | 2.00149 | 40133 ft | 484 kts | 88° |
| 2026-04-25 20:04 | 41.88978 | 2.09102 | 40130 ft | 484 kts | 88° |
| 2026-04-25 20:04 | 41.89214 | 2.18145 | 40134 ft | 485 kts | 88° |
| 2026-04-25 20:05 | 41.89444 | 2.27139 | 40118 ft | 486 kts | 88° |
| 2026-04-25 20:05 | 41.89669 | 2.36208 | 40123 ft | 486 kts | 88° |
| 2026-04-25 20:06 | 41.89885 | 2.45290 | 40118 ft | 487 kts | 88° |
| 2026-04-25 20:06 | 41.90094 | 2.54381 | 40110 ft | 487 kts | 88° |
| 2026-04-25 20:07 | 41.90296 | 2.63469 | 40110 ft | 487 kts | 88° |
| 2026-04-25 20:07 | 41.90491 | 2.72570 | 40103 ft | 487 kts | 88° |
| 2026-04-25 20:08 | 41.90679 | 2.81654 | 40100 ft | 487 kts | 88° |
| 2026-04-25 20:08 | 41.90859 | 2.90744 | 40103 ft | 487 kts | 88° |
| 2026-04-25 20:09 | 41.91032 | 2.99828 | 40099 ft | 486 kts | 88° |
| 2026-04-25 20:09 | 41.91196 | 3.08750 | 40103 ft | 486 kts | 88° |
| 2026-04-25 20:10 | 41.91354 | 3.17823 | 40099 ft | 486 kts | 89° |
| 2026-04-25 20:10 | 41.91506 | 3.26879 | 40100 ft | 485 kts | 89° |
| 2026-04-25 20:11 | 41.91650 | 3.35934 | 40102 ft | 485 kts | 89° |
| 2026-04-25 20:11 | 41.91787 | 3.44978 | 40101 ft | 485 kts | 89° |
| 2026-04-25 20:12 | 41.91917 | 3.54029 | 40102 ft | 484 kts | 89° |
| 2026-04-25 20:12 | 41.92019 | 3.61542 | 40101 ft | 484 kts | 89° |
| 2026-04-25 20:13 | 41.92096 | 3.67453 | 40102 ft | 485 kts | 89° |
| 2026-04-25 20:13 | 41.92183 | 3.74405 | 40102 ft | 485 kts | 89° |
| 2026-04-25 20:14 | 41.92292 | 3.83454 | 40101 ft | 485 kts | 89° |
| 2026-04-25 20:14 | 41.92833 | 3.92388 | 40103 ft | 484 kts | 78° |
| 2026-04-25 20:15 | 41.94718 | 4.00903 | 40104 ft | 483 kts | 66° |
| 2026-04-25 20:15 | 41.97446 | 4.09139 | 40104 ft | 483 kts | 65° |
| 2026-04-25 20:16 | 42.00200 | 4.17370 | 40102 ft | 483 kts | 65° |
| 2026-04-25 20:16 | 42.02993 | 4.25599 | 40100 ft | 483 kts | 60° |
| 2026-04-25 20:17 | 42.06444 | 4.33319 | 40098 ft | 482 kts | 57° |
| 2026-04-25 20:17 | 42.09996 | 4.40987 | 40092 ft | 483 kts | 57° |
| 2026-04-25 20:18 | 42.13520 | 4.48686 | 40093 ft | 483 kts | 57° |
| 2026-04-25 20:18 | 42.17012 | 4.56416 | 40093 ft | 483 kts | 58° |
| 2026-04-25 20:19 | 42.20492 | 4.64169 | 40093 ft | 484 kts | 58° |
| 2026-04-25 20:19 | 42.23995 | 4.71993 | 40096 ft | 490 kts | 58° |
| 2026-04-25 20:20 | 42.27535 | 4.79915 | 40102 ft | 495 kts | 58° |
| 2026-04-25 20:20 | 42.31100 | 4.87916 | 40105 ft | 498 kts | 58° |
| 2026-04-25 20:21 | 42.34667 | 4.95939 | 40102 ft | 499 kts | 58° |
| 2026-04-25 20:21 | 42.38183 | 5.03872 | 40091 ft | 499 kts | 58° |
| 2026-04-25 20:22 | 42.40543 | 5.09208 | 40090 ft | 498 kts | 58° |
| 2026-04-25 20:22 | 42.45287 | 5.19965 | 40090 ft | 496 kts | 58° |
| 2026-04-25 20:23 | 42.48816 | 5.27990 | 40093 ft | 495 kts | 58° |
| 2026-04-25 20:23 | 42.52328 | 5.35999 | 40102 ft | 494 kts | 58° |
| 2026-04-25 20:24 | 42.55826 | 5.43998 | 40101 ft | 493 kts | 58° |
| 2026-04-25 20:24 | 42.59317 | 5.52002 | 40102 ft | 493 kts | 58° |
| 2026-04-25 20:25 | 42.62803 | 5.60017 | 40102 ft | 493 kts | 58° |
| 2026-04-25 20:25 | 42.66278 | 5.68029 | 40102 ft | 493 kts | 58° |
| 2026-04-25 20:26 | 42.69753 | 5.76062 | 40102 ft | 493 kts | 58° |
| 2026-04-25 20:26 | 42.73205 | 5.84063 | 40102 ft | 494 kts | 59° |
| 2026-04-25 20:27 | 42.76675 | 5.92129 | 40102 ft | 494 kts | 59° |
| 2026-04-25 20:27 | 42.80109 | 6.00133 | 40102 ft | 494 kts | 59° |
| 2026-04-25 20:28 | 42.81588 | 6.03586 | 40102 ft | 494 kts | 59° |
| 2026-04-25 20:28 | 42.84614 | 6.10666 | 40100 ft | 494 kts | 59° |
| 2026-04-25 20:29 | 42.88069 | 6.18771 | 40101 ft | 494 kts | 59° |
| 2026-04-25 20:29 | 42.91519 | 6.26886 | 40108 ft | 494 kts | 59° |
| 2026-04-25 20:30 | 42.94958 | 6.34998 | 40110 ft | 494 kts | 59° |
| 2026-04-25 20:30 | 42.98393 | 6.43122 | 40103 ft | 494 kts | 59° |
| 2026-04-25 20:31 | 43.01819 | 6.51249 | 40103 ft | 494 kts | 59° |
| 2026-04-25 20:31 | 43.05238 | 6.59382 | 40096 ft | 494 kts | 59° |
| 2026-04-25 20:32 | 43.08654 | 6.67528 | 40083 ft | 494 kts | 59° |
| 2026-04-25 20:32 | 43.12067 | 6.75692 | 40087 ft | 494 kts | 59° |
| 2026-04-25 20:33 | 43.15467 | 6.83848 | 40091 ft | 494 kts | 59° |
| 2026-04-25 20:33 | 43.17738 | 6.89308 | 40096 ft | 493 kts | 59° |
| 2026-04-25 20:34 | 43.22225 | 7.00127 | 40095 ft | 493 kts | 59° |
| 2026-04-25 20:34 | 43.25587 | 7.08260 | 40106 ft | 493 kts | 59° |
| 2026-04-25 20:35 | 43.28959 | 7.16439 | 40102 ft | 493 kts | 59° |
| 2026-04-25 20:35 | 43.32333 | 7.24648 | 40108 ft | 493 kts | 59° |
| 2026-04-25 20:36 | 43.35701 | 7.32866 | 40114 ft | 493 kts | 59° |
| 2026-04-25 20:36 | 43.39063 | 7.41092 | 40109 ft | 494 kts | 59° |
| 2026-04-25 20:37 | 43.42421 | 7.49330 | 40095 ft | 494 kts | 59° |
| 2026-04-25 20:37 | 43.45778 | 7.57590 | 40098 ft | 494 kts | 59° |
| 2026-04-25 20:38 | 43.49125 | 7.65852 | 40109 ft | 494 kts | 59° |
| 2026-04-25 20:38 | 43.52464 | 7.74116 | 40111 ft | 494 kts | 59° |
| 2026-04-25 20:39 | 43.55799 | 7.82392 | 40107 ft | 494 kts | 59° |
| 2026-04-25 20:39 | 43.58007 | 7.87887 | 40107 ft | 495 kts | 59° |
| 2026-04-25 20:40 | 43.62459 | 7.98996 | 40128 ft | 495 kts | 59° |
| 2026-04-25 20:40 | 43.65722 | 8.07167 | 40116 ft | 495 kts | 59° |
| 2026-04-25 20:41 | 43.69018 | 8.15445 | 40123 ft | 495 kts | 59° |
| 2026-04-25 20:41 | 43.72351 | 8.23838 | 40120 ft | 495 kts | 60° |
| 2026-04-25 20:42 | 43.75634 | 8.32131 | 40122 ft | 495 kts | 60° |
| 2026-04-25 20:42 | 43.78933 | 8.40490 | 40132 ft | 495 kts | 60° |
| 2026-04-25 20:43 | 43.80187 | 8.43672 | 40127 ft | 495 kts | 60° |
| 2026-04-25 20:43 | 43.83113 | 8.51114 | 40131 ft | 495 kts | 60° |
| 2026-04-25 20:44 | 43.86396 | 8.59488 | 40128 ft | 495 kts | 60° |
| 2026-04-25 20:44 | 43.89146 | 8.66520 | 40122 ft | 495 kts | 60° |
| 2026-04-25 20:45 | 43.92420 | 8.74916 | 40121 ft | 495 kts | 60° |
| 2026-04-25 20:45 | 43.95694 | 8.83339 | 40122 ft | 496 kts | 60° |
| 2026-04-25 20:46 | 43.98963 | 8.91772 | 40113 ft | 496 kts | 60° |
| 2026-04-25 20:46 | 44.02188 | 9.00117 | 40107 ft | 497 kts | 60° |
| 2026-04-25 20:47 | 44.05415 | 9.08492 | 40112 ft | 498 kts | 60° |
| 2026-04-25 20:47 | 44.08679 | 9.16989 | 40111 ft | 499 kts | 60° |
| 2026-04-25 20:48 | 44.11982 | 9.25489 | 40100 ft | 500 kts | 57° |
| 2026-04-25 20:48 | 44.16137 | 9.33200 | 40097 ft | 497 kts | 46° |
| 2026-04-25 20:49 | 44.21153 | 9.39783 | 40090 ft | 495 kts | 38° |
| 2026-04-25 20:49 | 44.26409 | 9.46020 | 40099 ft | 496 kts | 38° |
| 2026-04-25 20:50 | 44.31654 | 9.52267 | 40092 ft | 496 kts | 38° |
| 2026-04-25 20:50 | 44.36781 | 9.58722 | 40058 ft | 498 kts | 43° |
| 2026-04-25 20:51 | 44.41535 | 9.65772 | 40079 ft | 498 kts | 45° |
| 2026-04-25 20:51 | 44.46216 | 9.72915 | 40081 ft | 497 kts | 45° |
| 2026-04-25 20:52 | 44.50119 | 9.78826 | 40056 ft | 498 kts | 45° |
| 2026-04-25 20:52 | 44.55637 | 9.87117 | 40044 ft | 498 kts | 45° |
| 2026-04-25 20:53 | 44.60366 | 9.94215 | 40036 ft | 498 kts | 45° |
| 2026-04-25 20:53 | 44.65016 | 10.01212 | 40037 ft | 497 kts | 45° |
| 2026-04-25 20:54 | 44.69728 | 10.08326 | 40032 ft | 497 kts | 45° |
| 2026-04-25 20:54 | 44.74440 | 10.15461 | 40034 ft | 498 kts | 45° |
| 2026-04-25 20:55 | 44.79146 | 10.22605 | 40032 ft | 498 kts | 45° |
| 2026-04-25 20:55 | 44.83863 | 10.29785 | 40021 ft | 499 kts | 45° |
| 2026-04-25 20:56 | 44.88577 | 10.36978 | 40018 ft | 500 kts | 45° |
| 2026-04-25 20:56 | 44.93287 | 10.44183 | 40030 ft | 500 kts | 45° |
| 2026-04-25 20:57 | 44.97997 | 10.51407 | 40027 ft | 500 kts | 45° |
| 2026-04-25 20:57 | 45.02703 | 10.58644 | 40039 ft | 501 kts | 45° |
| 2026-04-25 20:58 | 45.05000 | 10.62184 | 40037 ft | 493 kts | 45° |
| 2026-04-25 20:58 | 45.08794 | 10.68040 | 40031 ft | 501 kts | 45° |
| 2026-04-25 20:59 | 45.13506 | 10.75330 | 40020 ft | 502 kts | 45° |
| 2026-04-25 20:59 | 45.18180 | 10.82581 | 40016 ft | 502 kts | 45° |
| 2026-04-25 21:00 | 45.21324 | 10.87469 | 40020 ft | 502 kts | 45° |
| 2026-04-25 21:01 | 45.29861 | 11.00784 | 40025 ft | 502 kts | 45° |
| 2026-04-25 21:01 | 45.34588 | 11.08184 | 40030 ft | 502 kts | 45° |
| 2026-04-25 21:02 | 45.39247 | 11.15498 | 40025 ft | 503 kts | 45° |
| 2026-04-25 21:02 | 45.43946 | 11.22894 | 40036 ft | 504 kts | 45° |
| 2026-04-25 21:03 | 45.48641 | 11.30304 | 40042 ft | 504 kts | 45° |
| 2026-04-25 21:03 | 45.53342 | 11.37743 | 40050 ft | 505 kts | 45° |
| 2026-04-25 21:04 | 45.58049 | 11.45210 | 40049 ft | 506 kts | 45° |
| 2026-04-25 21:04 | 45.62763 | 11.52710 | 40057 ft | 508 kts | 45° |
| 2026-04-25 21:05 | 45.67481 | 11.60239 | 40066 ft | 509 kts | 45° |
| 2026-04-25 21:05 | 45.72199 | 11.67786 | 40076 ft | 510 kts | 45° |
| 2026-04-25 21:06 | 45.76926 | 11.75368 | 40066 ft | 511 kts | 45° |
| 2026-04-25 21:06 | 45.81647 | 11.82965 | 40056 ft | 507 kts | 45° |
| 2026-04-25 21:07 | 45.86259 | 11.90415 | 40042 ft | 495 kts | 45° |
| 2026-04-25 21:07 | 45.90834 | 11.97809 | 40053 ft | 496 kts | 45° |
| 2026-04-25 21:08 | 45.95343 | 12.05116 | 40077 ft | 496 kts | 45° |
| 2026-04-25 21:08 | 45.99889 | 12.12507 | 40082 ft | 497 kts | 45° |
| 2026-04-25 21:09 | 46.06766 | 12.23725 | 40089 ft | 499 kts | 45° |
| 2026-04-25 21:09 | 46.11360 | 12.31247 | 40097 ft | 500 kts | 45° |
| 2026-04-25 21:10 | 46.15954 | 12.38789 | 40095 ft | 501 kts | 45° |
| 2026-04-25 21:10 | 46.20545 | 12.46348 | 40053 ft | 501 kts | 45° |
| 2026-04-25 21:11 | 46.25130 | 12.53917 | 40084 ft | 500 kts | 45° |
| 2026-04-25 21:11 | 46.29706 | 12.61492 | 40067 ft | 500 kts | 45° |
| 2026-04-25 21:12 | 46.34274 | 12.69075 | 40083 ft | 499 kts | 45° |
| 2026-04-25 21:12 | 46.38090 | 12.75429 | 40056 ft | 499 kts | 46° |
| 2026-04-25 21:13 | 46.40601 | 12.80282 | 40085 ft | 447 kts | 53° |
| 2026-04-25 21:13 | 46.41933 | 12.83412 | 39997 ft | 506 kts | 58° |
| 2026-04-25 21:13 | 46.43494 | 12.87974 | 40092 ft | 505 kts | 62° |
| 2026-04-25 21:14 | 46.46373 | 12.97264 | 40062 ft | 507 kts | 63° |
| 2026-04-25 21:14 | 46.49190 | 13.06448 | 40085 ft | 507 kts | 63° |
| 2026-04-25 21:15 | 46.52081 | 13.15773 | 40085 ft | 507 kts | 63° |
| 2026-04-25 21:15 | 46.54993 | 13.25125 | 40079 ft | 508 kts | 63° |
| 2026-04-25 21:16 | 46.57902 | 13.34484 | 40061 ft | 509 kts | 63° |
| 2026-04-25 21:16 | 46.60808 | 13.43873 | 40055 ft | 510 kts | 63° |
| 2026-04-25 21:17 | 46.63705 | 13.53275 | 40078 ft | 510 kts | 63° |
| 2026-04-25 21:17 | 46.66589 | 13.62674 | 40055 ft | 511 kts | 63° |
| 2026-04-25 21:18 | 46.69490 | 13.72159 | 40060 ft | 511 kts | 63° |
| 2026-04-25 21:18 | 46.72349 | 13.81552 | 39441 ft | 501 kts | 64° |
| 2026-04-25 21:19 | 46.73749 | 13.86170 | 38848 ft | 497 kts | 63° |
| 2026-04-25 21:19 | 46.75143 | 13.90768 | 38278 ft | 492 kts | 64° |
| 2026-04-25 21:19 | 46.76498 | 13.95248 | 37747 ft | 487 kts | 64° |
| 2026-04-25 21:19 | 46.77857 | 13.99749 | 37212 ft | 483 kts | 64° |
| 2026-04-25 21:20 | 46.79076 | 14.03787 | 36727 ft | 479 kts | 64° |
| 2026-04-25 21:20 | 46.79509 | 14.05223 | 36542 ft | 478 kts | 64° |
| 2026-04-25 21:20 | 46.81759 | 14.12697 | 36106 ft | 485 kts | 64° |
| 2026-04-25 21:20 | 46.83115 | 14.17212 | 36067 ft | 486 kts | 64° |
| 2026-04-25 21:21 | 46.85815 | 14.26228 | 36062 ft | 484 kts | 64° |
| 2026-04-25 21:21 | 46.88505 | 14.35253 | 36051 ft | 484 kts | 64° |
| 2026-04-25 21:22 | 46.89852 | 14.39782 | 35663 ft | 489 kts | 64° |
| 2026-04-25 21:22 | 46.91219 | 14.44385 | 35055 ft | 498 kts | 64° |
| 2026-04-25 21:22 | 46.92600 | 14.49065 | 34566 ft | 505 kts | 64° |
| 2026-04-25 21:22 | 46.93987 | 14.53789 | 34087 ft | 505 kts | 64° |
| 2026-04-25 21:23 | 46.95368 | 14.58502 | 33542 ft | 501 kts | 64° |
| 2026-04-25 21:23 | 46.96730 | 14.63151 | 32967 ft | 496 kts | 64° |
| 2026-04-25 21:23 | 46.98086 | 14.67773 | 32406 ft | 490 kts | 64° |
| 2026-04-25 21:23 | 46.99425 | 14.72341 | 31851 ft | 485 kts | 64° |
| 2026-04-25 21:24 | 47.00739 | 14.76829 | 31284 ft | 479 kts | 64° |
| 2026-04-25 21:24 | 47.02041 | 14.81281 | 30805 ft | 473 kts | 64° |
| 2026-04-25 21:24 | 47.03335 | 14.85707 | 30296 ft | 477 kts | 64° |
| 2026-04-25 21:24 | 47.04639 | 14.90167 | 29820 ft | 485 kts | 64° |
| 2026-04-25 21:25 | 47.05964 | 14.94716 | 29331 ft | 485 kts | 64° |
| 2026-04-25 21:25 | 47.07299 | 14.99310 | 28778 ft | 482 kts | 64° |
| 2026-04-25 21:25 | 47.08545 | 15.03610 | 28177 ft | 481 kts | 64° |
| 2026-04-25 21:25 | 47.09847 | 15.08117 | 27563 ft | 479 kts | 64° |
| 2026-04-25 21:26 | 47.11141 | 15.12602 | 26933 ft | 475 kts | 64° |
| 2026-04-25 21:26 | 47.12419 | 15.17039 | 26309 ft | 469 kts | 64° |
| 2026-04-25 21:26 | 47.13683 | 15.21430 | 25687 ft | 463 kts | 64° |
| 2026-04-25 21:26 | 47.14925 | 15.25757 | 25067 ft | 458 kts | 64° |
| 2026-04-25 21:27 | 47.16152 | 15.30038 | 24440 ft | 453 kts | 64° |
| 2026-04-25 21:27 | 47.17368 | 15.34284 | 23818 ft | 449 kts | 64° |
| 2026-04-25 21:27 | 47.18571 | 15.38494 | 23209 ft | 444 kts | 64° |
| 2026-04-25 21:27 | 47.19761 | 15.42663 | 22643 ft | 439 kts | 64° |
| 2026-04-25 21:28 | 47.20662 | 15.45827 | 22203 ft | 435 kts | 64° |
| 2026-04-25 21:28 | 47.21708 | 15.49502 | 21644 ft | 435 kts | 64° |
| 2026-04-25 21:28 | 47.22870 | 15.53593 | 21060 ft | 431 kts | 64° |
| 2026-04-25 21:29 | 47.24029 | 15.57631 | 20495 ft | 426 kts | 62° |
| 2026-04-25 21:29 | 47.25423 | 15.61426 | 19919 ft | 420 kts | 54° |
| 2026-04-25 21:29 | 47.27076 | 15.64939 | 19351 ft | 413 kts | 48° |
| 2026-04-25 21:29 | 47.28925 | 15.68135 | 18771 ft | 408 kts | 45° |
| 2026-04-25 21:30 | 47.30159 | 15.70209 | 18392 ft | 406 kts | 45° |
| 2026-04-25 21:30 | 47.32017 | 15.73326 | 17833 ft | 403 kts | 45° |
| 2026-04-25 21:30 | 47.33859 | 15.76423 | 17226 ft | 401 kts | 45° |
| 2026-04-25 21:30 | 47.35690 | 15.79513 | 16674 ft | 398 kts | 45° |
| 2026-04-25 21:31 | 47.37502 | 15.82582 | 16106 ft | 395 kts | 45° |
| 2026-04-25 21:31 | 47.39296 | 15.85634 | 15514 ft | 392 kts | 45° |
| 2026-04-25 21:31 | 47.41076 | 15.88670 | 14956 ft | 390 kts | 45° |
| 2026-04-25 21:31 | 47.42843 | 15.91689 | 14382 ft | 387 kts | 45° |
| 2026-04-25 21:32 | 47.44602 | 15.94695 | 13800 ft | 385 kts | 45° |
| 2026-04-25 21:32 | 47.46344 | 15.97683 | 13251 ft | 384 kts | 45° |
| 2026-04-25 21:32 | 47.48024 | 16.00569 | 12768 ft | 378 kts | 46° |
| 2026-04-25 21:32 | 47.49721 | 16.03486 | 12375 ft | 371 kts | 45° |
| 2026-04-25 21:33 | 47.51389 | 16.06349 | 11966 ft | 364 kts | 45° |
| 2026-04-25 21:33 | 47.53034 | 16.09180 | 11588 ft | 363 kts | 45° |
| 2026-04-25 21:33 | 47.54676 | 16.12007 | 11191 ft | 362 kts | 45° |
| 2026-04-25 21:33 | 47.56314 | 16.14831 | 10790 ft | 362 kts | 46° |
| 2026-04-25 21:34 | 47.57948 | 16.17654 | 10399 ft | 360 kts | 46° |
| 2026-04-25 21:34 | 47.59567 | 16.20454 | 9998 ft | 354 kts | 46° |
| 2026-04-25 21:34 | 47.61154 | 16.23200 | 9601 ft | 348 kts | 45° |
| 2026-04-25 21:34 | 47.62715 | 16.25904 | 9240 ft | 343 kts | 46° |
| 2026-04-25 21:35 | 47.64245 | 16.28558 | 8995 ft | 333 kts | 45° |
| 2026-04-25 21:35 | 47.65711 | 16.31110 | 8982 ft | 316 kts | 45° |
| 2026-04-25 21:35 | 47.67102 | 16.33534 | 8984 ft | 302 kts | 45° |
| 2026-04-25 21:35 | 47.68443 | 16.35864 | 8971 ft | 295 kts | 45° |
| 2026-04-25 21:36 | 47.69778 | 16.38178 | 8886 ft | 294 kts | 45° |
| 2026-04-25 21:36 | 47.71117 | 16.40504 | 8539 ft | 299 kts | 45° |
| 2026-04-25 21:36 | 47.72470 | 16.42856 | 8167 ft | 299 kts | 45° |
| 2026-04-25 21:36 | 47.73792 | 16.45160 | 7765 ft | 288 kts | 45° |
| 2026-04-25 21:37 | 47.75086 | 16.47421 | 7404 ft | 288 kts | 45° |
| 2026-04-25 21:37 | 47.75951 | 16.48929 | 7174 ft | 289 kts | 45° |
| 2026-04-25 21:37 | 47.77678 | 16.51947 | 6820 ft | 284 kts | 45° |
| 2026-04-25 21:37 | 47.78948 | 16.54172 | 6565 ft | 281 kts | 45° |
| 2026-04-25 21:38 | 47.80205 | 16.56373 | 6311 ft | 278 kts | 45° |
| 2026-04-25 21:38 | 47.81452 | 16.58556 | 6059 ft | 276 kts | 45° |
| 2026-04-25 21:38 | 47.82705 | 16.60748 | 5814 ft | 280 kts | 45° |
| 2026-04-25 21:38 | 47.83962 | 16.62956 | 5564 ft | 279 kts | 45° |
| 2026-04-25 21:39 | 47.85206 | 16.65146 | 5311 ft | 275 kts | 45° |
| 2026-04-25 21:39 | 47.86423 | 16.67291 | 5030 ft | 264 kts | 45° |
| 2026-04-25 21:39 | 47.87550 | 16.69278 | 4743 ft | 247 kts | 47° |
| 2026-04-25 21:39 | 47.88524 | 16.71447 | 4513 ft | 252 kts | 54° |
| 2026-04-25 21:40 | 47.89419 | 16.73668 | 4268 ft | 253 kts | 55° |
| 2026-04-25 21:40 | 47.90319 | 16.75904 | 4084 ft | 248 kts | 55° |
| 2026-04-25 21:40 | 47.91189 | 16.78070 | 4017 ft | 241 kts | 55° |
| 2026-04-25 21:40 | 47.92042 | 16.80206 | 3991 ft | 240 kts | 55° |
| 2026-04-25 21:41 | 47.92905 | 16.82362 | 4017 ft | 244 kts | 55° |
| 2026-04-25 21:41 | 47.93825 | 16.84487 | 3978 ft | 241 kts | 43° |
| 2026-04-25 21:41 | 47.95128 | 16.85969 | 3900 ft | 235 kts | 25° |
| 2026-04-25 21:41 | 47.96537 | 16.87187 | 3794 ft | 234 kts | 25° |
| 2026-04-25 21:42 | 47.97963 | 16.88334 | 3559 ft | 230 kts | 15° |
| 2026-04-25 21:42 | 47.99511 | 16.88501 | 3342 ft | 222 kts | 341° |
| 2026-04-25 21:42 | 48.00773 | 16.87337 | 3233 ft | 214 kts | 308° |
| 2026-04-25 21:42 | 48.01585 | 16.85560 | 3198 ft | 201 kts | 302° |
| 2026-04-25 21:43 | 48.02278 | 16.83832 | 3138 ft | 188 kts | 298° |
| 2026-04-25 21:43 | 48.02866 | 16.82161 | 3040 ft | 175 kts | 296° |
| 2026-04-25 21:43 | 48.03404 | 16.80544 | 2999 ft | 175 kts | 296° |
| 2026-04-25 21:43 | 48.03939 | 16.78914 | 2992 ft | 174 kts | 296° |
| 2026-04-25 21:44 | 48.04467 | 16.77297 | 2983 ft | 173 kts | 296° |
| 2026-04-25 21:44 | 48.04988 | 16.75699 | 2984 ft | 170 kts | 296° |
| 2026-04-25 21:44 | 48.05966 | 16.72701 | 2775 ft | 152 kts | 296° |
| 2026-04-25 21:45 | 48.06424 | 16.71299 | 2576 ft | 149 kts | 296° |
| 2026-04-25 21:45 | 48.06725 | 16.70373 | 2467 ft | 150 kts | 296° |
| 2026-04-25 21:45 | 48.07340 | 16.68489 | 2196 ft | 150 kts | 296° |
| 2026-04-25 21:45 | 48.07799 | 16.67083 | 1999 ft | 153 kts | 295° |
| 2026-04-25 21:46 | 48.08264 | 16.65656 | 1789 ft | 148 kts | 295° |
| 2026-04-25 21:46 | 48.08688 | 16.64356 | 1615 ft | 131 kts | 295° |
| 2026-04-25 21:46 | 48.09067 | 16.63191 | 1436 ft | 122 kts | 295° |
| 2026-04-25 21:46 | 48.09438 | 16.62052 | 1289 ft | 122 kts | 295° |
| 2026-04-25 21:47 | 48.09813 | 16.60905 | 1118 ft | 122 kts | 295° |
| 2026-04-25 21:47 | 48.10182 | 16.59771 | 952 ft | 121 kts | 296° |
| 2026-04-25 21:47 | 48.10554 | 16.58632 | 804 ft | 123 kts | 295° |
| 2026-04-25 21:47 | 48.10933 | 16.57473 | 654 ft | 126 kts | 295° |
| 2026-04-25 21:48 | 48.11294 | 16.56368 | 623 ft | 103 kts | 296° |
| 2026-04-25 21:48 | 48.11539 | 16.55615 | 625 ft | 58 kts | 296° |
| 2026-04-25 21:48 | 48.11692 | 16.55146 | 620 ft | 46 kts | 296° |
| 2026-04-25 21:48 | 48.11835 | 16.54760 | 628 ft | 39 kts | 308° |
| 2026-04-25 21:49 | 48.11989 | 16.54564 | 628 ft | 16 kts | 326° |
| 2026-04-25 21:49 | 48.12061 | 16.54547 | 625 ft | 10 kts | 21° |
| 2026-04-25 21:49 | 48.12076 | 16.54609 | 621 ft | 8 kts | 104° |
| 2026-04-25 21:49 | 48.12028 | 16.54760 | 625 ft | 19 kts | 116° |
| 2026-04-25 21:50 | 48.11982 | 16.54902 | 617 ft | 14 kts | 116° |
| 2026-04-25 21:50 | 48.11941 | 16.55029 | 626 ft | 13 kts | 116° |
| 2026-04-25 21:50 | 48.11901 | 16.55149 | 620 ft | 13 kts | 116° |
| 2026-04-25 21:50 | 48.11875 | 16.55229 | 627 ft | 13 kts | 116° |
| 2026-04-25 21:51 | 48.11821 | 16.55395 | 615 ft | 14 kts | 116° |
| 2026-04-25 21:51 | 48.11779 | 16.55524 | 618 ft | 14 kts | 116° |
| 2026-04-25 21:51 | 48.11738 | 16.55652 | 626 ft | 14 kts | 116° |
| 2026-04-25 21:51 | 48.11696 | 16.55780 | 614 ft | 14 kts | 116° |
| 2026-04-25 21:52 | 48.11661 | 16.55888 | 627 ft | 9 kts | 116° |
| 2026-04-25 21:52 | 48.11663 | 16.55970 | 616 ft | 5 kts | 50° |
| 2026-04-25 21:52 | 48.11692 | 16.56005 | 615 ft | 6 kts | 57° |
| 2026-04-25 21:52 | 48.11702 | 16.56070 | 627 ft | 7 kts | 49° |
| 2026-04-25 21:53 | 48.11720 | 16.56089 | 619 ft | 4 kts | 30° |
| 2026-04-25 21:53 | 48.11754 | 16.56114 | 614 ft | 2 kts | 26° |
| 2026-04-25 21:53 | 48.11761 | 16.56119 | 626 ft | 0 kts | 26° |